Time;durP1;ratioP1;P1;durP2;ratioP2;P2;SDS_P1;SDS_P2;PMS_P1;PMS_P2;Temp;Humidity;BMP_temperature;BMP_pressure;BME280_temperature;BME280_humidity;BME280_pressure;Samples;Min_cycle;Max_cycle;Signal;HPM_P1;HPM_P2
2023/07/03 00:00:43;;;;;;;16.67;10.60;;;20.80;75.90;;;;;;4994490;28;20443;-69
2023/07/03 00:03:13;;;;;;;15.83;10.53;;;20.80;76.30;;;;;;5011486;28;20436;-69
2023/07/03 00:05:43;;;;;;;14.50;10.37;;;20.80;76.40;;;;;;5014179;28;20467;-70
2023/07/03 00:08:12;;;;;;;12.30;9.53;;;20.80;76.50;;;;;;5014180;28;20517;-69
2023/07/03 00:10:39;;;;;;;15.00;10.13;;;20.70;76.30;;;;;;5013840;28;20443;-69
2023/07/03 00:13:07;;;;;;;13.13;9.70;;;20.60;76.30;;;;;;5013489;28;20500;-69
2023/07/03 00:15:36;;;;;;;12.43;9.47;;;20.60;76.50;;;;;;5013867;28;20447;-69
2023/07/03 00:18:05;;;;;;;13.40;9.77;;;20.60;76.30;;;;;;5013801;28;20523;-69
2023/07/03 00:20:33;;;;;;;15.10;10.33;;;20.50;76.30;;;;;;5013974;28;20449;-69
2023/07/03 00:23:01;;;;;;;20.13;10.60;;;20.50;76.40;;;;;;4998009;28;20471;-69
2023/07/03 00:25:30;;;;;;;14.03;10.37;;;20.50;76.40;;;;;;4994107;28;20929;-69
2023/07/03 00:27:59;;;;;;;11.93;9.57;;;20.40;76.00;;;;;;4994330;28;20494;-69
2023/07/03 00:30:27;;;;;;;15.67;10.37;;;20.40;75.80;;;;;;4993831;28;20522;-69
2023/07/03 00:32:56;;;;;;;13.93;10.13;;;20.40;75.90;;;;;;5007617;28;20925;-69
2023/07/03 00:35:25;;;;;;;13.80;10.80;;;20.40;75.90;;;;;;4995361;28;20451;-69
2023/07/03 00:37:53;;;;;;;18.43;9.67;;;20.30;75.40;;;;;;4994081;28;20501;-69
2023/07/03 00:40:21;;;;;;;19.87;11.90;;;20.30;75.20;;;;;;4994200;28;20443;-69
2023/07/03 00:42:52;;;;;;;17.03;10.07;;;20.30;75.20;;;;;;4993757;28;20470;-69
2023/07/03 00:45:20;;;;;;;21.93;10.40;;;20.30;75.20;;;;;;4993973;28;20443;-69
2023/07/03 00:47:47;;;;;;;13.30;10.50;;;20.20;75.50;;;;;;4993729;28;20480;-69
2023/07/03 00:50:15;;;;;;;13.77;11.77;;;20.20;75.00;;;;;;4993929;28;20435;-69
2023/07/03 00:52:43;;;;;;;18.73;10.43;;;20.20;74.70;;;;;;5006078;28;20435;-69
2023/07/03 00:55:13;;;;;;;12.93;9.77;;;20.20;74.50;;;;;;5013644;28;20766;-69
2023/07/03 00:57:42;;;;;;;12.90;9.27;;;20.20;74.50;;;;;;5013342;28;20444;-69
2023/07/03 01:00:13;;;;;;;18.77;11.90;;;20.10;74.00;;;;;;5013272;28;20445;-69
2023/07/03 01:02:45;;;;;;;19.97;9.90;;;20.20;74.10;;;;;;5012751;28;20440;-69
2023/07/03 01:05:18;;;;;;;16.40;10.37;;;20.10;73.70;;;;;;5013528;28;20789;-69
2023/07/03 01:07:48;;;;;;;15.07;10.30;;;20.10;73.70;;;;;;5013113;28;20463;-69
2023/07/03 01:10:20;;;;;;;17.10;10.80;;;20.10;73.70;;;;;;5013136;28;20901;-69
2023/07/03 01:12:50;;;;;;;15.37;10.70;;;20.10;73.40;;;;;;5013282;28;20818;-69
2023/07/03 01:15:23;;;;;;;19.47;10.93;;;20.00;73.20;;;;;;4999672;28;20436;-69
2023/07/03 01:17:58;;;;;;;13.33;9.77;;;20.00;73.40;;;;;;4993551;28;20466;-69
2023/07/03 01:20:31;;;;;;;13.80;10.50;;;20.00;73.20;;;;;;4993800;28;20418;-69
2023/07/03 01:23:06;;;;;;;15.57;11.47;;;19.90;72.80;;;;;;4993875;28;20419;-69
2023/07/03 01:25:38;;;;;;;18.90;10.20;;;19.90;72.70;;;;;;4993864;28;20436;-69
2023/07/03 01:28:12;;;;;;;13.70;9.50;;;19.90;72.20;;;;;;4993815;28;20459;-69
2023/07/03 01:30:43;;;;;;;15.90;9.90;;;19.90;72.40;;;;;;4993813;28;20778;-69
2023/07/03 01:33:17;;;;;;;16.97;9.23;;;20.00;71.10;;;;;;4993527;28;20438;-69
2023/07/03 01:35:48;;;;;;;15.20;9.07;;;19.90;71.30;;;;;;4993833;28;20470;-70
2023/07/03 01:38:16;;;;;;;15.70;10.23;;;19.90;71.20;;;;;;5013229;28;20501;-69
2023/07/03 01:40:45;;;;;;;14.83;9.77;;;19.90;71.30;;;;;;5012903;28;20453;-69
2023/07/03 01:43:14;;;;;;;13.10;9.53;;;19.80;71.10;;;;;;5012789;28;20489;-69
2023/07/03 01:45:45;;;;;;;13.27;9.87;;;19.80;71.00;;;;;;5016199;28;20981;-69
2023/07/03 01:48:12;;;;;;;17.33;10.47;;;19.80;71.10;;;;;;5016301;28;20455;-72
2023/07/03 01:50:40;;;;;;;23.87;12.50;;;19.70;70.80;;;;;;5016236;28;20503;-69
2023/07/03 01:53:15;;;;;;;14.50;10.07;;;19.70;70.30;;;;;;5016418;28;20458;-69
2023/07/03 01:55:50;;;;;;;15.00;9.83;;;19.70;70.00;;;;;;5016410;28;20455;-69
2023/07/03 01:58:29;;;;;;;17.53;11.07;;;19.70;69.40;;;;;;5016441;28;20445;-69
2023/07/03 02:01:02;;;;;;;14.53;10.63;;;19.60;69.50;;;;;;5016300;28;20417;-69
2023/07/03 02:03:33;;;;;;;16.07;10.60;;;19.60;69.80;;;;;;5016829;28;20431;-69
2023/07/03 02:06:08;;;;;;;15.27;10.40;;;19.50;69.70;;;;;;5015220;28;20460;-69
2023/07/03 02:08:35;;;;;;;17.13;11.20;;;19.40;69.80;;;;;;4996788;28;20462;-69
2023/07/03 02:11:12;;;;;;;14.93;11.00;;;19.40;69.80;;;;;;4996499;28;20443;-69
2023/07/03 02:13:42;;;;;;;16.80;10.00;;;19.30;69.60;;;;;;4996454;28;20419;-69
2023/07/03 02:16:11;;;;;;;15.07;10.50;;;19.20;69.20;;;;;;4996639;28;20435;-69
2023/07/03 02:18:38;;;;;;;12.70;9.30;;;19.20;69.50;;;;;;4996433;28;20858;-69
2023/07/03 02:21:06;;;;;;;16.40;11.70;;;19.20;70.10;;;;;;4996623;28;20442;-69
2023/07/03 02:23:33;;;;;;;15.80;10.60;;;19.20;70.20;;;;;;4996306;28;20559;-69
2023/07/03 02:26:09;;;;;;;16.90;10.10;;;19.30;70.20;;;;;;4996067;28;20440;-69
2023/07/03 02:28:37;;;;;;;17.03;10.67;;;19.30;68.80;;;;;;4996174;28;20467;-69
2023/07/03 02:31:04;;;;;;;15.60;9.60;;;19.30;66.80;;;;;;4996919;28;20455;-69
2023/07/03 02:33:32;;;;;;;17.73;10.27;;;19.30;67.10;;;;;;4995607;28;20440;-71
2023/07/03 02:36:02;;;;;;;13.00;8.53;;;19.30;67.20;;;;;;4996341;28;20440;-69
2023/07/03 02:38:30;;;;;;;17.83;10.83;;;19.30;66.80;;;;;;4996524;28;20518;-69
2023/07/03 02:40:59;;;;;;;13.23;9.73;;;19.30;67.30;;;;;;4996374;28;20774;-69
2023/07/03 02:43:28;;;;;;;15.73;9.80;;;19.40;67.60;;;;;;4995738;28;20965;-69
2023/07/03 02:46:03;;;;;;;14.10;9.87;;;19.30;66.80;;;;;;4995674;28;20436;-69
2023/07/03 02:48:31;;;;;;;16.53;10.83;;;19.30;66.20;;;;;;4995813;28;20466;-69
2023/07/03 02:50:59;;;;;;;14.00;10.90;;;19.30;66.70;;;;;;5010152;28;20442;-69
2023/07/03 02:53:26;;;;;;;17.20;10.17;;;19.30;67.20;;;;;;5015740;28;20524;-69
2023/07/03 02:55:57;;;;;;;17.00;10.60;;;19.30;66.70;;;;;;5015064;28;20465;-69
2023/07/03 02:58:26;;;;;;;14.83;9.23;;;19.30;67.70;;;;;;5015685;28;20812;-69
2023/07/03 03:00:55;;;;;;;13.10;9.53;;;19.30;67.70;;;;;;5015526;28;20442;-70
2023/07/03 03:03:22;;;;;;;13.43;9.90;;;19.20;67.60;;;;;;5015140;28;20929;-69
2023/07/03 03:05:52;;;;;;;18.50;11.07;;;19.20;67.50;;;;;;5013432;28;20448;-69
2023/07/03 03:08:21;;;;;;;20.30;12.03;;;19.20;67.10;;;;;;5015403;28;20465;-69
2023/07/03 03:10:49;;;;;;;15.93;10.93;;;19.20;66.80;;;;;;5014597;28;20530;-69
2023/07/03 03:13:31;;;;;;;15.73;11.20;;;19.20;66.60;;;;;;5015080;28;20437;-69
2023/07/03 03:15:59;;;;;;;13.60;9.60;;;19.10;66.70;;;;;;5015293;28;20423;-69
2023/07/03 03:18:26;;;;;;;14.50;9.80;;;19.10;68.00;;;;;;5015176;28;20464;-70
2023/07/03 03:20:54;;;;;;;19.10;10.53;;;19.00;69.60;;;;;;5013584;28;20442;-70
2023/07/03 03:23:22;;;;;;;13.33;9.83;;;19.00;71.10;;;;;;5012953;28;20946;-69
2023/07/03 03:25:54;;;;;;;16.27;9.83;;;18.90;71.80;;;;;;5015026;28;20457;-70
2023/07/03 03:28:21;;;;;;;14.40;9.33;;;18.90;72.10;;;;;;5014951;28;21003;-69
2023/07/03 03:30:50;;;;;;;13.70;9.53;;;18.80;72.10;;;;;;5014633;28;20522;-69
2023/07/03 03:33:17;;;;;;;16.13;10.07;;;18.80;72.40;;;;;;5014928;28;20435;-69
2023/07/03 03:35:47;;;;;;;18.13;8.87;;;18.80;72.30;;;;;;5014329;28;20436;-69
2023/07/03 03:38:14;;;;;;;16.27;10.53;;;18.70;72.40;;;;;;5014840;28;20457;-70
2023/07/03 03:40:43;;;;;;;15.40;9.50;;;18.70;72.80;;;;;;5000074;28;20508;-69
2023/07/03 03:43:13;;;;;;;17.00;11.10;;;18.60;73.30;;;;;;5008255;28;20461;-69
2023/07/03 03:45:41;;;;;;;14.37;10.10;;;18.60;73.90;;;;;;5003881;28;20468;-69
2023/07/03 03:48:10;;;;;;;15.30;9.73;;;18.50;74.30;;;;;;5004436;28;20470;-75
2023/07/03 03:50:38;;;;;;;15.13;10.77;;;18.50;74.80;;;;;;5014510;28;20437;-69
2023/07/03 03:53:05;;;;;;;13.57;10.17;;;18.50;75.50;;;;;;5014300;28;20921;-69
2023/07/03 03:55:33;;;;;;;19.90;11.47;;;18.50;76.00;;;;;;5014237;28;20517;-69
2023/07/03 03:58:00;;;;;;;13.87;11.13;;;18.40;76.70;;;;;;5014183;28;20438;-69
2023/07/03 04:00:30;;;;;;;20.43;11.07;;;18.40;77.00;;;;;;5014176;28;20900;-69
2023/07/03 04:02:58;;;;;;;15.03;10.70;;;18.40;77.50;;;;;;5003716;28;20776;-69
2023/07/03 04:05:27;;;;;;;15.20;10.90;;;18.40;78.10;;;;;;4994461;28;20906;-69
2023/07/03 04:07:54;;;;;;;15.20;10.20;;;18.40;78.70;;;;;;5013251;28;21010;-69
2023/07/03 04:10:27;;;;;;;16.00;10.47;;;18.40;79.10;;;;;;5014471;28;20438;-70
2023/07/03 04:12:56;;;;;;;12.40;9.90;;;18.40;79.30;;;;;;5014042;28;20422;-69
2023/07/03 04:15:24;;;;;;;14.40;10.67;;;18.40;79.70;;;;;;5014247;28;20438;-69
2023/07/03 04:17:51;;;;;;;15.30;10.43;;;18.40;80.10;;;;;;5013612;28;20975;-69
2023/07/03 04:20:19;;;;;;;16.77;10.33;;;18.50;80.40;;;;;;5013913;28;20916;-70
2023/07/03 04:22:48;;;;;;;20.13;10.87;;;18.50;80.50;;;;;;5013811;28;20431;-69
2023/07/03 04:25:17;;;;;;;18.07;10.70;;;18.50;80.50;;;;;;5010007;28;20443;-69
2023/07/03 04:27:44;;;;;;;13.47;9.10;;;18.50;81.10;;;;;;4994444;28;20530;-69
2023/07/03 04:30:14;;;;;;;14.43;10.23;;;18.60;82.00;;;;;;4993960;28;20557;-69
2023/07/03 04:32:41;;;;;;;16.57;10.97;;;18.70;82.50;;;;;;4994104;28;20925;-69
2023/07/03 04:35:11;;;;;;;18.43;10.83;;;18.70;82.10;;;;;;4993946;28;20434;-69
2023/07/03 04:37:43;;;;;;;14.87;10.53;;;18.70;82.10;;;;;;4994306;28;20494;-70
2023/07/03 04:40:13;;;;;;;16.03;10.60;;;18.80;81.80;;;;;;5008422;28;20464;-69
2023/07/03 04:42:41;;;;;;;15.13;10.60;;;18.80;82.20;;;;;;5013622;28;20508;-69
2023/07/03 04:45:13;;;;;;;19.43;10.80;;;18.90;82.80;;;;;;4999371;28;20434;-71
2023/07/03 04:47:41;;;;;;;15.37;10.07;;;18.90;82.80;;;;;;4993397;28;20498;-69
2023/07/03 04:50:14;;;;;;;17.43;11.10;;;18.90;82.90;;;;;;4993294;28;20566;-69
2023/07/03 04:52:46;;;;;;;13.53;10.70;;;18.90;83.10;;;;;;4993730;28;20420;-69
2023/07/03 04:55:14;;;;;;;17.23;11.87;;;19.00;83.20;;;;;;5010461;28;20917;-70
2023/07/03 04:57:42;;;;;;;16.30;10.83;;;19.00;83.10;;;;;;5013012;28;20908;-72
2023/07/03 05:00:14;;;;;;;17.80;10.70;;;19.00;83.20;;;;;;5013238;28;20434;-69
2023/07/03 05:02:42;;;;;;;20.63;9.50;;;19.00;82.20;;;;;;5013401;28;20761;-69
2023/07/03 05:05:10;;;;;;;18.57;11.27;;;19.10;82.60;;;;;;4996507;28;20439;-69
2023/07/03 05:07:37;;;;;;;17.73;11.80;;;19.10;82.60;;;;;;4993607;28;20435;-69
2023/07/03 05:10:08;;;;;;;16.20;11.60;;;19.20;81.20;;;;;;4993150;28;20562;-69
2023/07/03 05:12:38;;;;;;;16.30;12.40;;;19.20;81.30;;;;;;4993629;28;20423;-69
2023/07/03 05:15:08;;;;;;;14.57;11.10;;;19.20;79.40;;;;;;5008537;28;20468;-69
2023/07/03 05:17:38;;;;;;;14.60;10.07;;;19.20;78.90;;;;;;5012983;28;20446;-69
2023/07/03 05:20:08;;;;;;;13.30;11.23;;;19.30;79.10;;;;;;5016996;28;20532;-69
2023/07/03 05:22:36;;;;;;;14.40;10.13;;;19.30;79.00;;;;;;5016653;28;20426;-70
2023/07/03 05:25:04;;;;;;;15.77;10.60;;;19.40;79.60;;;;;;5001704;28;20446;-70
2023/07/03 05:27:31;;;;;;;17.07;10.13;;;19.40;77.30;;;;;;4997275;28;20465;-69
2023/07/03 05:30:00;;;;;;;14.50;10.77;;;19.50;76.50;;;;;;4997228;28;20474;-71
2023/07/03 05:32:27;;;;;;;12.33;8.17;;;19.60;76.90;;;;;;4996880;28;20428;-70
2023/07/03 05:34:55;;;;;;;16.90;10.40;;;19.70;75.50;;;;;;4997039;28;20794;-71
2023/07/03 05:37:24;;;;;;;15.57;8.87;;;19.70;74.20;;;;;;5015949;28;20429;-69
2023/07/03 05:39:51;;;;;;;15.70;10.30;;;19.70;74.40;;;;;;5016165;28;20442;-71
2023/07/03 05:42:19;;;;;;;16.07;9.93;;;19.80;75.00;;;;;;5016141;28;20999;-69
2023/07/03 05:44:48;;;;;;;14.43;8.60;;;19.90;75.20;;;;;;5015974;28;20442;-70
2023/07/03 05:47:17;;;;;;;16.33;10.53;;;19.90;74.60;;;;;;5016276;28;20446;-69
2023/07/03 05:49:45;;;;;;;16.07;9.53;;;20.00;74.50;;;;;;5016056;28;20481;-69
2023/07/03 05:52:12;;;;;;;12.83;8.17;;;20.10;74.60;;;;;;5014559;28;20434;-69
2023/07/03 05:54:39;;;;;;;13.00;8.60;;;20.20;74.40;;;;;;5016112;28;20935;-69
2023/07/03 05:57:12;;;;;;;13.30;8.43;;;20.30;73.20;;;;;;5014235;28;20524;-72
2023/07/03 05:59:41;;;;;;;10.60;7.83;;;20.40;72.00;;;;;;5016513;28;20489;-69
2023/07/03 06:02:10;;;;;;;12.90;8.60;;;20.50;70.40;;;;;;5016083;28;20928;-69
2023/07/03 06:04:39;;;;;;;14.83;9.50;;;20.50;70.70;;;;;;5016129;28;20849;-70
2023/07/03 06:07:08;;;;;;;15.27;8.77;;;20.60;71.00;;;;;;5009879;28;20443;-69
2023/07/03 06:09:36;;;;;;;13.40;7.63;;;20.70;71.00;;;;;;4992423;28;20508;-70
2023/07/03 06:12:03;;;;;;;10.03;7.10;;;20.80;68.30;;;;;;4996548;28;20440;-69
2023/07/03 06:14:32;;;;;;;11.43;7.60;;;20.80;67.00;;;;;;4998665;28;20428;-71
2023/07/03 06:16:59;;;;;;;12.10;8.33;;;20.80;64.70;;;;;;5006522;28;20936;-69
2023/07/03 06:19:27;;;;;;;18.83;7.77;;;20.90;63.70;;;;;;4996266;28;20467;-70
2023/07/03 06:21:56;;;;;;;15.50;7.50;;;21.00;63.60;;;;;;4997138;28;20448;-69
2023/07/03 06:24:23;;;;;;;11.47;7.67;;;21.00;64.10;;;;;;4995347;28;20436;-70
2023/07/03 06:26:51;;;;;;;8.97;7.27;;;21.10;63.90;;;;;;4996215;28;20519;-70
2023/07/03 06:29:19;;;;;;;12.40;8.00;;;21.00;63.20;;;;;;4998704;28;20461;-70
2023/07/03 06:31:45;;;;;;;10.47;7.10;;;21.10;64.40;;;;;;4995933;28;20433;-69
2023/07/03 06:34:12;;;;;;;12.83;8.10;;;21.20;64.70;;;;;;4996653;28;20509;-70
2023/07/03 06:36:40;;;;;;;12.30;6.80;;;21.40;65.70;;;;;;4996754;28;20477;-69
2023/07/03 06:39:09;;;;;;;10.50;7.00;;;21.50;63.90;;;;;;4996361;28;20436;-69
2023/07/03 06:41:36;;;;;;;11.83;7.27;;;21.60;62.10;;;;;;4996244;28;20496;-69
2023/07/03 06:44:04;;;;;;;11.30;6.87;;;21.70;61.40;;;;;;4996694;28;20522;-69
2023/07/03 06:46:32;;;;;;;15.93;6.80;;;21.80;59.80;;;;;;4996415;28;20507;-69
2023/07/03 06:48:59;;;;;;;11.43;6.20;;;21.80;59.20;;;;;;4994226;28;20433;-69
2023/07/03 06:51:26;;;;;;;13.93;7.50;;;21.90;59.60;;;;;;4995758;28;20433;-69
2023/07/03 06:53:53;;;;;;;11.57;8.00;;;22.00;59.00;;;;;;4996065;28;20429;-69
2023/07/03 06:56:22;;;;;;;12.80;6.27;;;22.10;59.10;;;;;;4996155;28;20433;-69
2023/07/03 06:58:50;;;;;;;13.33;7.33;;;22.10;58.80;;;;;;4996226;28;20474;-70
2023/07/03 07:01:18;;;;;;;11.10;6.27;;;22.20;58.90;;;;;;4995916;28;20466;-69
2023/07/03 07:03:46;;;;;;;14.83;6.87;;;22.30;57.90;;;;;;4996207;28;20467;-70
2023/07/03 07:06:15;;;;;;;14.83;7.13;;;22.40;56.70;;;;;;4995392;28;20443;-70
2023/07/03 07:08:43;;;;;;;12.43;6.47;;;22.50;56.30;;;;;;4995702;28;20469;-71
2023/07/03 07:11:14;;;;;;;12.77;6.37;;;22.50;56.10;;;;;;4995037;28;20520;-70
2023/07/03 07:13:44;;;;;;;10.77;6.70;;;22.60;56.30;;;;;;4995988;28;20509;-69
2023/07/03 07:16:12;;;;;;;12.30;6.10;;;22.60;55.90;;;;;;4995115;28;20421;-69
2023/07/03 07:18:40;;;;;;;13.23;5.80;;;22.60;55.40;;;;;;4995565;28;20433;-69
2023/07/03 07:21:06;;;;;;;12.83;6.20;;;22.60;55.40;;;;;;4995878;28;20503;-69
2023/07/03 07:23:33;;;;;;;12.37;6.67;;;22.60;56.10;;;;;;4995407;28;20436;-69
2023/07/03 07:26:00;;;;;;;10.23;6.60;;;22.60;55.90;;;;;;4995612;28;20784;-70
2023/07/03 07:28:27;;;;;;;10.30;6.43;;;22.70;56.10;;;;;;4995659;28;20473;-70
2023/07/03 07:30:56;;;;;;;11.70;6.70;;;22.70;56.30;;;;;;4995420;28;20504;-70
2023/07/03 07:33:23;;;;;;;10.30;5.90;;;22.80;56.60;;;;;;4995169;28;20594;-70
2023/07/03 07:35:51;;;;;;;13.63;7.00;;;22.90;56.90;;;;;;4995398;28;20448;-69
2023/07/03 07:38:18;;;;;;;13.20;6.43;;;23.00;56.10;;;;;;4995159;28;20442;-69
2023/07/03 07:40:45;;;;;;;11.40;6.33;;;23.10;55.00;;;;;;4995375;28;20481;-69
2023/07/03 07:43:14;;;;;;;14.80;6.57;;;23.20;54.50;;;;;;4995327;28;20494;-69
2023/07/03 07:45:40;;;;;;;13.37;6.53;;;23.30;53.70;;;;;;4995041;28;20437;-69
2023/07/03 07:48:09;;;;;;;8.53;5.10;;;23.50;53.60;;;;;;4995191;28;20473;-70
2023/07/03 07:50:36;;;;;;;10.03;6.90;;;23.50;53.70;;;;;;4995036;28;20886;-69
2023/07/03 07:53:03;;;;;;;13.10;7.40;;;23.60;52.50;;;;;;4995482;28;20519;-69
2023/07/03 07:55:30;;;;;;;9.30;5.70;;;23.70;52.70;;;;;;4994930;28;20469;-69
2023/07/03 07:57:57;;;;;;;10.20;6.40;;;23.70;52.70;;;;;;4995190;28;20461;-69
2023/07/03 08:00:24;;;;;;;16.07;6.63;;;23.70;52.50;;;;;;4995091;28;20475;-70
2023/07/03 08:02:51;;;;;;;12.50;6.30;;;23.80;53.40;;;;;;4994753;28;20461;-69
2023/07/03 08:05:20;;;;;;;12.90;7.30;;;23.80;52.40;;;;;;4995009;28;20582;-70
2023/07/03 08:07:47;;;;;;;9.80;5.90;;;23.80;52.50;;;;;;4994635;28;20470;-69
2023/07/03 08:10:15;;;;;;;12.07;5.83;;;23.90;51.10;;;;;;4994896;28;20469;-70
2023/07/03 08:12:42;;;;;;;8.50;6.17;;;23.90;51.20;;;;;;4995093;28;20523;-69
2023/07/03 08:15:10;;;;;;;10.17;5.47;;;23.90;50.60;;;;;;4994609;28;20430;-69
2023/07/03 08:17:37;;;;;;;12.13;6.40;;;23.90;50.50;;;;;;4994870;28;20841;-69
2023/07/03 08:20:09;;;;;;;11.27;6.13;;;23.90;49.80;;;;;;4994456;28;20471;-69
2023/07/03 08:22:37;;;;;;;11.50;6.10;;;23.80;51.30;;;;;;4994768;28;20497;-69
2023/07/03 08:25:04;;;;;;;17.53;7.20;;;23.90;52.30;;;;;;4994712;28;20446;-69
2023/07/03 08:27:31;;;;;;;8.73;5.80;;;23.90;51.60;;;;;;4994740;28;20438;-69
2023/07/03 08:29:58;;;;;;;13.50;6.43;;;23.90;52.00;;;;;;4994605;28;20505;-69
2023/07/03 08:32:25;;;;;;;13.70;8.10;;;23.90;51.90;;;;;;4994300;28;20928;-69
2023/07/03 08:34:52;;;;;;;9.70;5.93;;;23.80;52.10;;;;;;4994217;28;20928;-70
2023/07/03 08:37:19;;;;;;;11.77;6.90;;;23.80;51.90;;;;;;4994401;28;20488;-69
2023/07/03 08:39:47;;;;;;;9.87;6.20;;;23.90;51.70;;;;;;4994546;28;20684;-70
2023/07/03 08:42:19;;;;;;;9.77;6.07;;;23.90;51.00;;;;;;4994021;28;20494;-69
2023/07/03 08:44:46;;;;;;;11.07;6.60;;;23.90;50.50;;;;;;4994157;28;20459;-69
2023/07/03 08:47:18;;;;;;;11.37;6.87;;;24.00;50.80;;;;;;4994033;28;20470;-69
2023/07/03 08:49:47;;;;;;;14.80;6.90;;;24.00;50.30;;;;;;4994033;28;20494;-69
2023/07/03 08:52:19;;;;;;;9.60;5.57;;;24.00;50.80;;;;;;4994033;28;20474;-69
2023/07/03 08:54:49;;;;;;;10.17;5.90;;;24.10;50.90;;;;;;4994386;28;20433;-69
2023/07/03 08:57:16;;;;;;;9.13;5.50;;;24.20;50.30;;;;;;4994264;28;20479;-69
2023/07/03 08:59:43;;;;;;;8.73;5.77;;;24.30;50.40;;;;;;4994248;28;20517;-70
2023/07/03 09:02:19;;;;;;;9.83;6.63;;;24.40;50.10;;;;;;4994207;28;20500;-69
2023/07/03 09:04:58;;;;;;;13.67;6.40;;;24.60;50.40;;;;;;4994328;28;20418;-69
2023/07/03 09:07:32;;;;;;;11.83;5.00;;;24.70;50.40;;;;;;4994308;28;20418;-70
2023/07/03 09:10:09;;;;;;;10.20;5.47;;;24.80;49.60;;;;;;4993741;28;21004;-69
2023/07/03 09:12:41;;;;;;;10.47;6.10;;;24.90;48.90;;;;;;4994415;28;20427;-69
2023/07/03 09:15:13;;;;;;;11.97;6.23;;;24.90;48.50;;;;;;4994266;28;20878;-69
2023/07/03 09:17:41;;;;;;;9.67;7.00;;;24.90;48.70;;;;;;4991702;28;20441;-69
2023/07/03 09:20:11;;;;;;;8.00;5.60;;;24.90;48.60;;;;;;4993740;28;20493;-71
2023/07/03 09:22:45;;;;;;;13.50;6.20;;;24.90;48.60;;;;;;4994359;28;20432;-69
2023/07/03 09:25:22;;;;;;;14.60;6.20;;;25.00;49.30;;;;;;4994009;28;20499;-69
2023/07/03 09:27:54;;;;;;;12.57;5.30;;;25.20;50.10;;;;;;4993741;28;20575;-69
2023/07/03 09:30:21;;;;;;;8.70;5.40;;;25.20;49.40;;;;;;4993638;28;21008;-69
2023/07/03 09:32:48;;;;;;;11.60;6.27;;;25.30;48.30;;;;;;4993691;28;20498;-69
2023/07/03 09:35:17;;;;;;;13.23;5.87;;;25.30;48.60;;;;;;4993493;28;20486;-70
2023/07/03 09:37:46;;;;;;;13.47;6.83;;;25.30;47.70;;;;;;4993637;28;20923;-69
2023/07/03 09:40:19;;;;;;;13.20;6.73;;;25.30;47.70;;;;;;4993623;28;20443;-69
2023/07/03 09:42:46;;;;;;;10.03;6.53;;;25.30;47.80;;;;;;4993456;28;20502;-70
2023/07/03 09:45:16;;;;;;;11.80;6.30;;;25.30;47.70;;;;;;4993679;28;20440;-69
2023/07/03 09:47:47;;;;;;;12.10;7.17;;;25.20;47.90;;;;;;4993954;28;20493;-71
2023/07/03 09:50:14;;;;;;;8.27;5.83;;;25.20;46.90;;;;;;4993704;28;20460;-70
2023/07/03 09:52:45;;;;;;;9.13;5.80;;;25.20;47.30;;;;;;4993476;28;20467;-70
2023/07/03 09:55:12;;;;;;;12.00;6.47;;;25.20;48.20;;;;;;4993303;28;20976;-69
2023/07/03 09:57:41;;;;;;;8.03;5.73;;;25.30;49.00;;;;;;4993424;28;20485;-69
2023/07/03 10:00:14;;;;;;;14.13;5.70;;;25.30;47.90;;;;;;4993733;28;20513;-69
2023/07/03 10:02:42;;;;;;;9.83;6.17;;;25.30;47.80;;;;;;4993798;28;20827;-69
2023/07/03 10:05:15;;;;;;;11.10;6.23;;;25.20;47.60;;;;;;4994076;28;20435;-69
2023/07/03 10:07:44;;;;;;;12.27;6.67;;;25.30;47.70;;;;;;4997072;28;20420;-69
2023/07/03 10:10:14;;;;;;;13.20;6.87;;;25.30;47.10;;;;;;4996878;28;20497;-69
2023/07/03 10:12:49;;;;;;;10.67;6.00;;;25.30;47.30;;;;;;4995341;28;20974;-69
2023/07/03 10:15:20;;;;;;;11.37;6.40;;;25.40;46.90;;;;;;4997095;28;20818;-69
2023/07/03 10:17:53;;;;;;;12.40;6.43;;;25.40;46.60;;;;;;4996756;28;20487;-69
2023/07/03 10:20:25;;;;;;;12.67;6.77;;;25.40;47.90;;;;;;4996994;28;20452;-69
2023/07/03 10:22:53;;;;;;;12.37;6.80;;;25.40;47.70;;;;;;4996717;28;20463;-69
2023/07/03 10:25:25;;;;;;;15.80;6.77;;;25.40;47.40;;;;;;4997009;28;20495;-69
2023/07/03 10:27:58;;;;;;;10.37;7.20;;;25.40;47.40;;;;;;4996656;28;20421;-69
2023/07/03 10:30:30;;;;;;;11.23;7.03;;;25.40;47.60;;;;;;4996539;28;20467;-69
2023/07/03 10:33:03;;;;;;;8.63;6.10;;;25.40;48.70;;;;;;4996980;28;20428;-69
2023/07/03 10:35:33;;;;;;;9.00;6.60;;;25.30;46.80;;;;;;4996715;28;20793;-69
2023/07/03 10:38:10;;;;;;;11.47;6.47;;;25.40;47.70;;;;;;4996628;28;20525;-70
2023/07/03 10:40:43;;;;;;;12.00;7.20;;;25.40;47.50;;;;;;4996451;28;20432;-69
2023/07/03 10:43:13;;;;;;;10.83;6.33;;;25.50;47.30;;;;;;4996599;28;20811;-69
2023/07/03 10:45:40;;;;;;;13.27;7.00;;;25.50;48.20;;;;;;5015928;28;20472;-70
2023/07/03 10:48:12;;;;;;;20.27;7.27;;;25.60;48.00;;;;;;5005944;28;20795;-69
2023/07/03 10:50:44;;;;;;;10.00;6.60;;;25.70;47.70;;;;;;4996530;28;20462;-70
2023/07/03 10:53:20;;;;;;;9.00;5.50;;;25.80;47.60;;;;;;4996795;28;20530;-69
2023/07/03 10:55:54;;;;;;;13.67;8.30;;;25.90;48.00;;;;;;4993315;28;20430;-69
2023/07/03 10:58:30;;;;;;;7.40;5.60;;;26.10;46.90;;;;;;4995948;28;20800;-69
2023/07/03 11:01:11;;;;;;;12.53;7.03;;;26.20;47.60;;;;;;4996309;28;20428;-69
2023/07/03 11:03:46;;;;;;;10.77;6.50;;;26.40;47.50;;;;;;5004049;28;20490;-69
2023/07/03 11:06:20;;;;;;;11.93;6.90;;;26.60;46.40;;;;;;4997910;28;20474;-69
2023/07/03 11:08:56;;;;;;;12.07;6.80;;;26.80;46.30;;;;;;4995767;28;20428;-70
2023/07/03 11:11:38;;;;;;;10.83;6.90;;;26.80;45.10;;;;;;4994872;28;20471;-69
2023/07/03 11:14:13;;;;;;;10.10;6.23;;;26.80;45.80;;;;;;4995159;28;20424;-69
2023/07/03 11:16:56;;;;;;;12.03;7.77;;;27.00;45.60;;;;;;4992127;28;20801;-72
2023/07/03 11:19:33;;;;;;;11.87;7.23;;;27.00;45.10;;;;;;4994766;28;20950;-71
2023/07/03 11:22:12;;;;;;;8.53;6.37;;;27.10;45.60;;;;;;4994261;28;20466;-71
2023/07/03 11:24:47;;;;;;;10.73;7.23;;;27.20;45.00;;;;;;4993955;28;20474;-71
2023/07/03 11:27:22;;;;;;;10.10;6.60;;;27.20;43.80;;;;;;4993962;28;20965;-70
2023/07/03 11:29:53;;;;;;;10.20;7.20;;;27.20;43.90;;;;;;4994800;28;20792;-69
2023/07/03 11:32:22;;;;;;;14.73;7.17;;;27.20;43.80;;;;;;4995707;28;20464;-69
2023/07/03 11:34:51;;;;;;;12.60;6.00;;;27.20;44.30;;;;;;4995544;28;20760;-70
2023/07/03 11:37:46;;;;;;;13.73;7.43;;;27.20;44.30;;;;;;4995510;28;20850;-69
2023/07/03 11:40:37;;;;;;;11.37;6.70;;;27.10;44.40;;;;;;4978418;28;20503;-69
2023/07/03 11:43:23;;;;;;;10.60;6.57;;;27.10;43.70;;;;;;4995186;28;20496;-70
2023/07/03 11:46:03;;;;;;;10.67;6.27;;;27.10;44.30;;;;;;4995419;28;20513;-69
2023/07/03 11:48:33;;;;;;;7.67;5.93;;;27.20;45.50;;;;;;4995106;28;20499;-69
2023/07/03 11:51:03;;;;;;;8.93;6.20;;;27.20;43.50;;;;;;4995141;28;20487;-69
2023/07/03 11:53:36;;;;;;;9.40;6.13;;;27.30;43.00;;;;;;4995009;28;20938;-70
2023/07/03 11:56:04;;;;;;;14.20;7.10;;;27.30;43.50;;;;;;4995357;28;20506;-69
2023/07/03 11:58:33;;;;;;;10.40;6.63;;;27.30;43.50;;;;;;4995313;28;20459;-70
2023/07/03 12:01:29;;;;;;;12.80;6.00;;;27.30;43.80;;;;;;4995403;28;20530;-69
2023/07/03 12:03:58;;;;;;;11.23;6.87;;;27.30;43.80;;;;;;4993250;28;20441;-70
2023/07/03 12:06:50;;;;;;;16.27;7.03;;;27.20;44.20;;;;;;4994958;28;20527;-70
2023/07/03 12:09:29;;;;;;;12.60;6.83;;;27.20;44.00;;;;;;4995058;28;20432;-69
2023/07/03 12:12:16;;;;;;;15.93;7.23;;;27.20;43.30;;;;;;4995194;28;20495;-69
2023/07/03 12:14:54;;;;;;;15.60;6.60;;;27.20;43.50;;;;;;4994950;28;20485;-69
2023/07/03 12:17:25;;;;;;;20.80;6.80;;;27.20;43.60;;;;;;4994687;28;20482;-69
2023/07/03 12:19:55;;;;;;;9.53;6.50;;;27.20;43.10;;;;;;4994458;28;20420;-69
2023/07/03 12:22:26;;;;;;;10.03;6.30;;;27.20;42.00;;;;;;4994844;28;20771;-69
2023/07/03 12:25:06;;;;;;;10.10;6.53;;;27.20;42.40;;;;;;4994533;28;20431;-69
2023/07/03 12:27:34;;;;;;;10.30;7.10;;;27.20;42.70;;;;;;4974911;28;20480;-69
2023/07/03 12:30:01;;;;;;;11.70;7.73;;;27.10;43.30;;;;;;4974979;28;20433;-69
2023/07/03 12:32:31;;;;;;;12.50;7.17;;;27.10;43.10;;;;;;4975488;28;20476;-69
2023/07/03 12:35:12;;;;;;;9.40;6.43;;;27.10;43.60;;;;;;4974877;28;20448;-69
2023/07/03 12:37:44;;;;;;;12.33;7.73;;;27.10;43.20;;;;;;4975140;28;20433;-69
2023/07/03 12:40:13;;;;;;;13.43;7.70;;;27.10;43.70;;;;;;4975235;28;20429;-69
2023/07/03 12:42:41;;;;;;;12.90;7.20;;;27.10;42.30;;;;;;4974573;28;20978;-69
2023/07/03 12:45:14;;;;;;;11.57;7.00;;;27.10;42.80;;;;;;4975015;28;20433;-69
2023/07/03 12:47:43;;;;;;;10.80;6.97;;;27.10;42.90;;;;;;4974766;28;20440;-74
2023/07/03 12:50:15;;;;;;;9.67;6.50;;;27.10;43.10;;;;;;4975020;28;20793;-69